sensor_id;sensor_type;location;lat;lon;timestamp;P1;durP1;ratioP1;P2;durP2;ratioP2
5754;SDS011;2902;42.130;24.732;2022-07-15T00:02:24;2.57;;;2.30;;
5754;SDS011;2902;42.130;24.732;2022-07-15T00:04:50;3.50;;;2.40;;
5754;SDS011;2902;42.130;24.732;2022-07-15T00:07:17;5.90;;;2.77;;
5754;SDS011;2902;42.130;24.732;2022-07-15T00:09:45;2.30;;;2.20;;
5754;SDS011;2902;42.130;24.732;2022-07-15T00:12:29;3.33;;;2.23;;
5754;SDS011;2902;42.130;24.732;2022-07-15T00:14:58;3.07;;;2.77;;
5754;SDS011;2902;42.130;24.732;2022-07-15T00:17:25;5.43;;;3.03;;
5754;SDS011;2902;42.130;24.732;2022-07-15T00:19:52;3.70;;;2.73;;
5754;SDS011;2902;42.130;24.732;2022-07-15T00:22:19;8.20;;;2.83;;
5754;SDS011;2902;42.130;24.732;2022-07-15T00:24:46;3.50;;;2.37;;
5754;SDS011;2902;42.130;24.732;2022-07-15T00:27:12;4.90;;;2.23;;
5754;SDS011;2902;42.130;24.732;2022-07-15T00:29:39;3.00;;;2.17;;
5754;SDS011;2902;42.130;24.732;2022-07-15T00:32:08;6.47;;;2.67;;
5754;SDS011;2902;42.130;24.732;2022-07-15T00:34:34;4.10;;;2.10;;
5754;SDS011;2902;42.130;24.732;2022-07-15T00:37:01;2.60;;;2.37;;
5754;SDS011;2902;42.130;24.732;2022-07-15T00:39:28;3.10;;;2.40;;
5754;SDS011;2902;42.130;24.732;2022-07-15T00:41:55;4.47;;;2.67;;
5754;SDS011;2902;42.130;24.732;2022-07-15T00:44:22;5.53;;;2.83;;
5754;SDS011;2902;42.130;24.732;2022-07-15T00:46:48;2.43;;;2.23;;
5754;SDS011;2902;42.130;24.732;2022-07-15T00:49:17;3.70;;;2.97;;
5754;SDS011;2902;42.130;24.732;2022-07-15T00:51:44;3.03;;;2.67;;
5754;SDS011;2902;42.130;24.732;2022-07-15T00:54:14;3.43;;;3.13;;
5754;SDS011;2902;42.130;24.732;2022-07-15T00:56:50;5.40;;;2.77;;
5754;SDS011;2902;42.130;24.732;2022-07-15T00:59:20;6.60;;;2.93;;
5754;SDS011;2902;42.130;24.732;2022-07-15T01:01:49;3.50;;;2.63;;
5754;SDS011;2902;42.130;24.732;2022-07-15T01:04:19;3.17;;;2.97;;
5754;SDS011;2902;42.130;24.732;2022-07-15T01:06:47;4.47;;;2.97;;
5754;SDS011;2902;42.130;24.732;2022-07-15T01:09:14;2.77;;;2.57;;
5754;SDS011;2902;42.130;24.732;2022-07-15T01:11:41;5.67;;;2.90;;
5754;SDS011;2902;42.130;24.732;2022-07-15T01:14:07;5.23;;;2.40;;
5754;SDS011;2902;42.130;24.732;2022-07-15T01:16:34;2.50;;;2.30;;
5754;SDS011;2902;42.130;24.732;2022-07-15T01:19:01;4.30;;;2.50;;
5754;SDS011;2902;42.130;24.732;2022-07-15T01:21:30;4.17;;;2.40;;
5754;SDS011;2902;42.130;24.732;2022-07-15T01:23:57;4.67;;;2.90;;
5754;SDS011;2902;42.130;24.732;2022-07-15T01:26:25;11.30;;;2.87;;
5754;SDS011;2902;42.130;24.732;2022-07-15T01:28:52;7.17;;;2.93;;
5754;SDS011;2902;42.130;24.732;2022-07-15T01:31:18;8.20;;;2.90;;
5754;SDS011;2902;42.130;24.732;2022-07-15T01:33:45;2.87;;;2.37;;
5754;SDS011;2902;42.130;24.732;2022-07-15T01:36:12;4.17;;;2.57;;
5754;SDS011;2902;42.130;24.732;2022-07-15T01:38:40;2.37;;;2.27;;
5754;SDS011;2902;42.130;24.732;2022-07-15T01:41:07;4.93;;;2.93;;
5754;SDS011;2902;42.130;24.732;2022-07-15T01:43:33;2.77;;;2.57;;
5754;SDS011;2902;42.130;24.732;2022-07-15T01:46:00;3.30;;;3.00;;
5754;SDS011;2902;42.130;24.732;2022-07-15T01:48:27;4.40;;;3.07;;
5754;SDS011;2902;42.130;24.732;2022-07-15T01:51:11;6.80;;;2.90;;
5754;SDS011;2902;42.130;24.732;2022-07-15T01:53:38;4.23;;;2.80;;
5754;SDS011;2902;42.130;24.732;2022-07-15T01:56:06;3.10;;;2.80;;
5754;SDS011;2902;42.130;24.732;2022-07-15T01:58:33;2.53;;;2.33;;
5754;SDS011;2902;42.130;24.732;2022-07-15T02:01:00;5.10;;;2.70;;
5754;SDS011;2902;42.130;24.732;2022-07-15T02:03:27;3.10;;;2.80;;
5754;SDS011;2902;42.130;24.732;2022-07-15T02:05:53;2.93;;;2.73;;
5754;SDS011;2902;42.130;24.732;2022-07-15T02:08:20;4.97;;;2.60;;
5754;SDS011;2902;42.130;24.732;2022-07-15T02:10:47;3.53;;;2.67;;
5754;SDS011;2902;42.130;24.732;2022-07-15T02:13:15;5.57;;;3.40;;
5754;SDS011;2902;42.130;24.732;2022-07-15T02:15:42;6.23;;;3.13;;
5754;SDS011;2902;42.130;24.732;2022-07-15T02:18:09;5.83;;;3.63;;
5754;SDS011;2902;42.130;24.732;2022-07-15T02:20:36;4.60;;;2.90;;
5754;SDS011;2902;42.130;24.732;2022-07-15T02:23:04;5.53;;;3.87;;
5754;SDS011;2902;42.130;24.732;2022-07-15T02:25:32;4.37;;;2.90;;
5754;SDS011;2902;42.130;24.732;2022-07-15T02:28:00;5.63;;;3.10;;
5754;SDS011;2902;42.130;24.732;2022-07-15T02:30:32;4.40;;;2.83;;
5754;SDS011;2902;42.130;24.732;2022-07-15T02:33:00;3.07;;;2.77;;
5754;SDS011;2902;42.130;24.732;2022-07-15T02:35:28;3.40;;;3.00;;
5754;SDS011;2902;42.130;24.732;2022-07-15T02:37:55;6.20;;;2.83;;
5754;SDS011;2902;42.130;24.732;2022-07-15T02:40:22;3.67;;;3.03;;
5754;SDS011;2902;42.130;24.732;2022-07-15T02:42:50;5.27;;;3.00;;
5754;SDS011;2902;42.130;24.732;2022-07-15T02:45:18;7.27;;;3.43;;
5754;SDS011;2902;42.130;24.732;2022-07-15T02:47:48;6.93;;;3.27;;
5754;SDS011;2902;42.130;24.732;2022-07-15T02:50:15;3.30;;;3.00;;
5754;SDS011;2902;42.130;24.732;2022-07-15T02:52:42;3.40;;;2.97;;
5754;SDS011;2902;42.130;24.732;2022-07-15T02:55:11;4.83;;;3.00;;
5754;SDS011;2902;42.130;24.732;2022-07-15T02:57:38;4.70;;;2.37;;
5754;SDS011;2902;42.130;24.732;2022-07-15T03:00:06;4.07;;;2.40;;
5754;SDS011;2902;42.130;24.732;2022-07-15T03:02:35;4.47;;;2.77;;
5754;SDS011;2902;42.130;24.732;2022-07-15T03:05:04;3.67;;;3.00;;
5754;SDS011;2902;42.130;24.732;2022-07-15T03:07:31;5.50;;;3.30;;
5754;SDS011;2902;42.130;24.732;2022-07-15T03:09:58;6.10;;;3.13;;
5754;SDS011;2902;42.130;24.732;2022-07-15T03:12:25;5.43;;;2.70;;
5754;SDS011;2902;42.130;24.732;2022-07-15T03:14:52;7.30;;;3.27;;
5754;SDS011;2902;42.130;24.732;2022-07-15T03:17:19;7.67;;;2.70;;
5754;SDS011;2902;42.130;24.732;2022-07-15T03:19:46;9.00;;;2.70;;
5754;SDS011;2902;42.130;24.732;2022-07-15T03:22:14;6.47;;;3.33;;
5754;SDS011;2902;42.130;24.732;2022-07-15T03:24:40;8.60;;;3.23;;
5754;SDS011;2902;42.130;24.732;2022-07-15T03:27:07;7.03;;;2.60;;
5754;SDS011;2902;42.130;24.732;2022-07-15T03:29:34;8.57;;;2.77;;
5754;SDS011;2902;42.130;24.732;2022-07-15T03:32:01;8.90;;;2.77;;
5754;SDS011;2902;42.130;24.732;2022-07-15T03:34:28;5.60;;;2.83;;
5754;SDS011;2902;42.130;24.732;2022-07-15T03:36:55;6.60;;;2.70;;
5754;SDS011;2902;42.130;24.732;2022-07-15T03:39:24;4.10;;;2.77;;
5754;SDS011;2902;42.130;24.732;2022-07-15T03:41:51;4.30;;;2.93;;
5754;SDS011;2902;42.130;24.732;2022-07-15T03:44:18;7.67;;;3.30;;
5754;SDS011;2902;42.130;24.732;2022-07-15T03:46:45;4.73;;;2.83;;
5754;SDS011;2902;42.130;24.732;2022-07-15T03:49:12;4.87;;;3.00;;
5754;SDS011;2902;42.130;24.732;2022-07-15T03:51:38;5.57;;;2.83;;
5754;SDS011;2902;42.130;24.732;2022-07-15T03:54:05;6.10;;;2.90;;
5754;SDS011;2902;42.130;24.732;2022-07-15T03:56:34;4.37;;;2.27;;
5754;SDS011;2902;42.130;24.732;2022-07-15T03:59:02;10.63;;;2.93;;
5754;SDS011;2902;42.130;24.732;2022-07-15T04:01:29;3.20;;;2.90;;
5754;SDS011;2902;42.130;24.732;2022-07-15T04:03:56;3.93;;;2.73;;
5754;SDS011;2902;42.130;24.732;2022-07-15T04:06:22;3.57;;;2.83;;
5754;SDS011;2902;42.130;24.732;2022-07-15T04:08:49;5.77;;;2.70;;
5754;SDS011;2902;42.130;24.732;2022-07-15T04:11:17;2.97;;;2.60;;
5754;SDS011;2902;42.130;24.732;2022-07-15T04:13:46;11.40;;;2.50;;
5754;SDS011;2902;42.130;24.732;2022-07-15T04:16:13;6.67;;;2.50;;
5754;SDS011;2902;42.130;24.732;2022-07-15T04:18:40;4.17;;;2.43;;
5754;SDS011;2902;42.130;24.732;2022-07-15T04:21:06;4.33;;;2.20;;
5754;SDS011;2902;42.130;24.732;2022-07-15T04:23:33;2.87;;;2.67;;
5754;SDS011;2902;42.130;24.732;2022-07-15T04:26:00;4.37;;;2.27;;
5754;SDS011;2902;42.130;24.732;2022-07-15T04:28:27;2.53;;;2.33;;
5754;SDS011;2902;42.130;24.732;2022-07-15T04:30:55;2.30;;;2.10;;
5754;SDS011;2902;42.130;24.732;2022-07-15T04:33:22;5.43;;;2.40;;
5754;SDS011;2902;42.130;24.732;2022-07-15T04:35:49;4.73;;;2.23;;
5754;SDS011;2902;42.130;24.732;2022-07-15T04:38:16;3.53;;;2.60;;
5754;SDS011;2902;42.130;24.732;2022-07-15T04:40:43;5.00;;;2.30;;
5754;SDS011;2902;42.130;24.732;2022-07-15T04:43:10;2.97;;;2.40;;
5754;SDS011;2902;42.130;24.732;2022-07-15T04:45:36;15.17;;;2.60;;
5754;SDS011;2902;42.130;24.732;2022-07-15T04:48:05;4.33;;;2.40;;
5754;SDS011;2902;42.130;24.732;2022-07-15T04:50:53;4.63;;;2.57;;
5754;SDS011;2902;42.130;24.732;2022-07-15T04:53:19;6.87;;;2.50;;
5754;SDS011;2902;42.130;24.732;2022-07-15T04:55:46;3.27;;;2.03;;
5754;SDS011;2902;42.130;24.732;2022-07-15T04:58:13;3.63;;;2.30;;
5754;SDS011;2902;42.130;24.732;2022-07-15T05:00:40;4.23;;;2.43;;
5754;SDS011;2902;42.130;24.732;2022-07-15T05:03:09;10.53;;;3.00;;
5754;SDS011;2902;42.130;24.732;2022-07-15T05:05:36;6.80;;;2.42;;
5754;SDS011;2902;42.130;24.732;2022-07-15T05:08:03;8.15;;;3.17;;
5754;SDS011;2902;42.130;24.732;2022-07-15T05:10:31;3.03;;;1.85;;
5754;SDS011;2902;42.130;24.732;2022-07-15T05:12:58;3.65;;;3.10;;
5754;SDS011;2902;42.130;24.732;2022-07-15T05:15:25;5.85;;;2.45;;
5754;SDS011;2902;42.130;24.732;2022-07-15T05:17:52;4.50;;;2.00;;
5754;SDS011;2902;42.130;24.732;2022-07-15T05:20:20;3.03;;;2.30;;
5754;SDS011;2902;42.130;24.732;2022-07-15T05:22:47;6.13;;;2.40;;
5754;SDS011;2902;42.130;24.732;2022-07-15T05:25:14;4.03;;;2.22;;
5754;SDS011;2902;42.130;24.732;2022-07-15T05:27:41;3.72;;;2.50;;
5754;SDS011;2902;42.130;24.732;2022-07-15T05:30:09;24.20;;;3.72;;
5754;SDS011;2902;42.130;24.732;2022-07-15T05:32:37;5.07;;;2.45;;
5754;SDS011;2902;42.130;24.732;2022-07-15T05:35:04;3.55;;;2.10;;
5754;SDS011;2902;42.130;24.732;2022-07-15T05:37:33;4.28;;;2.05;;
5754;SDS011;2902;42.130;24.732;2022-07-15T05:40:02;8.13;;;2.20;;
5754;SDS011;2902;42.130;24.732;2022-07-15T05:42:30;3.83;;;2.08;;
5754;SDS011;2902;42.130;24.732;2022-07-15T05:44:56;15.52;;;3.10;;
5754;SDS011;2902;42.130;24.732;2022-07-15T05:47:23;6.35;;;1.92;;
5754;SDS011;2902;42.130;24.732;2022-07-15T05:49:50;3.28;;;2.08;;
5754;SDS011;2902;42.130;24.732;2022-07-15T05:52:17;5.43;;;2.30;;
5754;SDS011;2902;42.130;24.732;2022-07-15T05:54:45;11.18;;;2.90;;
5754;SDS011;2902;42.130;24.732;2022-07-15T05:57:12;4.78;;;1.80;;
5754;SDS011;2902;42.130;24.732;2022-07-15T05:59:38;8.98;;;2.45;;
5754;SDS011;2902;42.130;24.732;2022-07-15T06:02:05;4.15;;;2.03;;
5754;SDS011;2902;42.130;24.732;2022-07-15T06:04:32;3.80;;;2.28;;
5754;SDS011;2902;42.130;24.732;2022-07-15T06:06:59;2.60;;;2.40;;
5754;SDS011;2902;42.130;24.732;2022-07-15T06:09:26;5.25;;;2.78;;
5754;SDS011;2902;42.130;24.732;2022-07-15T06:11:55;2.50;;;2.00;;
5754;SDS011;2902;42.130;24.732;2022-07-15T06:14:22;6.05;;;2.40;;
5754;SDS011;2902;42.130;24.732;2022-07-15T06:16:49;15.50;;;2.97;;
5754;SDS011;2902;42.130;24.732;2022-07-15T06:19:15;3.72;;;2.30;;
5754;SDS011;2902;42.130;24.732;2022-07-15T06:21:42;5.82;;;2.45;;
5754;SDS011;2902;42.130;24.732;2022-07-15T06:24:09;7.35;;;2.47;;
5754;SDS011;2902;42.130;24.732;2022-07-15T06:26:36;4.80;;;2.10;;
5754;SDS011;2902;42.130;24.732;2022-07-15T06:29:04;6.65;;;2.63;;
5754;SDS011;2902;42.130;24.732;2022-07-15T06:31:30;4.05;;;2.00;;
5754;SDS011;2902;42.130;24.732;2022-07-15T06:33:57;5.18;;;2.03;;
5754;SDS011;2902;42.130;24.732;2022-07-15T06:36:24;9.10;;;2.72;;
5754;SDS011;2902;42.130;24.732;2022-07-15T06:38:51;2.63;;;2.10;;
5754;SDS011;2902;42.130;24.732;2022-07-15T06:41:18;4.57;;;2.08;;
5754;SDS011;2902;42.130;24.732;2022-07-15T06:43:44;9.55;;;2.33;;
5754;SDS011;2902;42.130;24.732;2022-07-15T06:46:13;22.92;;;2.97;;
5754;SDS011;2902;42.130;24.732;2022-07-15T06:48:39;9.88;;;2.28;;
5754;SDS011;2902;42.130;24.732;2022-07-15T06:51:07;7.20;;;2.17;;
5754;SDS011;2902;42.130;24.732;2022-07-15T06:53:34;6.47;;;2.70;;
5754;SDS011;2902;42.130;24.732;2022-07-15T06:56:01;2.83;;;1.85;;
5754;SDS011;2902;42.130;24.732;2022-07-15T06:58:28;6.28;;;2.10;;
5754;SDS011;2902;42.130;24.732;2022-07-15T07:00:55;3.35;;;1.83;;
5754;SDS011;2902;42.130;24.732;2022-07-15T07:03:23;4.15;;;1.92;;
5754;SDS011;2902;42.130;24.732;2022-07-15T07:05:50;7.20;;;1.98;;
5754;SDS011;2902;42.130;24.732;2022-07-15T07:08:16;1.75;;;1.63;;
5754;SDS011;2902;42.130;24.732;2022-07-15T07:10:43;6.63;;;1.80;;
5754;SDS011;2902;42.130;24.732;2022-07-15T07:13:10;3.45;;;1.73;;
5754;SDS011;2902;42.130;24.732;2022-07-15T07:15:37;8.85;;;2.35;;
5754;SDS011;2902;42.130;24.732;2022-07-15T07:18:04;12.85;;;2.08;;
5754;SDS011;2902;42.130;24.732;2022-07-15T07:20:32;4.13;;;1.92;;
5754;SDS011;2902;42.130;24.732;2022-07-15T07:22:59;2.00;;;1.83;;
5754;SDS011;2902;42.130;24.732;2022-07-15T07:25:26;4.70;;;1.70;;
5754;SDS011;2902;42.130;24.732;2022-07-15T07:27:53;3.20;;;1.40;;
5754;SDS011;2902;42.130;24.732;2022-07-15T07:30:19;12.52;;;2.30;;
5754;SDS011;2902;42.130;24.732;2022-07-15T07:32:46;5.50;;;1.80;;
5754;SDS011;2902;42.130;24.732;2022-07-15T07:35:13;2.13;;;1.45;;
5754;SDS011;2902;42.130;24.732;2022-07-15T07:37:41;8.38;;;1.75;;
5754;SDS011;2902;42.130;24.732;2022-07-15T07:40:08;4.30;;;1.63;;
5754;SDS011;2902;42.130;24.732;2022-07-15T07:42:35;5.15;;;2.42;;
5754;SDS011;2902;42.130;24.732;2022-07-15T07:45:04;3.40;;;1.70;;
5754;SDS011;2902;42.130;24.732;2022-07-15T07:47:32;3.78;;;1.45;;
5754;SDS011;2902;42.130;24.732;2022-07-15T07:50:02;4.30;;;1.95;;
5754;SDS011;2902;42.130;24.732;2022-07-15T07:52:29;5.80;;;2.30;;
5754;SDS011;2902;42.130;24.732;2022-07-15T07:54:57;3.90;;;1.95;;
5754;SDS011;2902;42.130;24.732;2022-07-15T07:57:24;3.00;;;1.73;;
5754;SDS011;2902;42.130;24.732;2022-07-15T07:59:51;3.13;;;1.23;;
5754;SDS011;2902;42.130;24.732;2022-07-15T08:02:17;40.33;;;4.07;;
5754;SDS011;2902;42.130;24.732;2022-07-15T08:04:44;10.05;;;2.25;;
5754;SDS011;2902;42.130;24.732;2022-07-15T08:07:11;1.48;;;1.30;;
5754;SDS011;2902;42.130;24.732;2022-07-15T08:09:37;2.30;;;1.80;;
5754;SDS011;2902;42.130;24.732;2022-07-15T08:12:06;5.57;;;1.75;;
5754;SDS011;2902;42.130;24.732;2022-07-15T08:14:33;1.65;;;1.55;;
5754;SDS011;2902;42.130;24.732;2022-07-15T08:17:00;7.45;;;1.63;;
5754;SDS011;2902;42.130;24.732;2022-07-15T08:19:26;2.33;;;1.58;;
5754;SDS011;2902;42.130;24.732;2022-07-15T08:21:53;9.85;;;1.90;;
5754;SDS011;2902;42.130;24.732;2022-07-15T08:24:20;4.70;;;1.58;;
5754;SDS011;2902;42.130;24.732;2022-07-15T08:26:47;3.97;;;1.30;;
5754;SDS011;2902;42.130;24.732;2022-07-15T08:29:15;4.13;;;1.30;;
5754;SDS011;2902;42.130;24.732;2022-07-15T08:31:41;1.80;;;1.70;;
5754;SDS011;2902;42.130;24.732;2022-07-15T08:34:08;8.88;;;1.77;;
5754;SDS011;2902;42.130;24.732;2022-07-15T08:36:35;6.13;;;1.70;;
5754;SDS011;2902;42.130;24.732;2022-07-15T08:39:02;11.88;;;2.13;;
5754;SDS011;2902;42.130;24.732;2022-07-15T08:41:29;24.23;;;2.60;;
5754;SDS011;2902;42.130;24.732;2022-07-15T08:43:59;1.77;;;1.55;;
5754;SDS011;2902;42.130;24.732;2022-07-15T08:46:27;2.53;;;1.30;;
5754;SDS011;2902;42.130;24.732;2022-07-15T08:48:57;6.10;;;1.92;;
5754;SDS011;2902;42.130;24.732;2022-07-15T08:51:28;1.77;;;1.35;;
5754;SDS011;2902;42.130;24.732;2022-07-15T08:53:59;6.20;;;1.50;;
5754;SDS011;2902;42.130;24.732;2022-07-15T08:56:26;4.28;;;1.63;;
5754;SDS011;2902;42.130;24.732;2022-07-15T08:58:53;1.77;;;1.13;;
5754;SDS011;2902;42.130;24.732;2022-07-15T09:01:20;5.85;;;1.48;;
5754;SDS011;2902;42.130;24.732;2022-07-15T09:03:48;5.82;;;1.60;;
5754;SDS011;2902;42.130;24.732;2022-07-15T09:06:29;11.88;;;2.38;;
5754;SDS011;2902;42.130;24.732;2022-07-15T09:08:57;1.95;;;1.45;;
5754;SDS011;2902;42.130;24.732;2022-07-15T09:11:26;6.05;;;1.20;;
5754;SDS011;2902;42.130;24.732;2022-07-15T09:13:57;1.48;;;1.38;;
5754;SDS011;2902;42.130;24.732;2022-07-15T09:16:25;4.30;;;1.30;;
5754;SDS011;2902;42.130;24.732;2022-07-15T09:18:54;5.30;;;1.30;;
5754;SDS011;2902;42.130;24.732;2022-07-15T09:21:22;5.57;;;1.63;;
5754;SDS011;2902;42.130;24.732;2022-07-15T09:23:51;5.72;;;1.45;;
5754;SDS011;2902;42.130;24.732;2022-07-15T09:26:22;1.20;;;1.20;;
5754;SDS011;2902;42.130;24.732;2022-07-15T09:28:51;1.45;;;1.23;;
5754;SDS011;2902;42.130;24.732;2022-07-15T09:31:28;1.73;;;1.20;;
5754;SDS011;2902;42.130;24.732;2022-07-15T09:34:11;1.13;;;1.13;;
5754;SDS011;2902;42.130;24.732;2022-07-15T09:36:38;3.35;;;1.10;;
5754;SDS011;2902;42.130;24.732;2022-07-15T09:39:07;2.20;;;1.13;;
5754;SDS011;2902;42.130;24.732;2022-07-15T09:41:35;4.25;;;1.25;;
5754;SDS011;2902;42.130;24.732;2022-07-15T09:44:05;3.97;;;1.55;;
5754;SDS011;2902;42.130;24.732;2022-07-15T09:46:39;2.03;;;1.08;;
5754;SDS011;2902;42.130;24.732;2022-07-15T09:49:08;4.13;;;1.40;;
5754;SDS011;2902;42.130;24.732;2022-07-15T09:51:47;1.20;;;1.05;;
5754;SDS011;2902;42.130;24.732;2022-07-15T09:54:15;3.65;;;1.40;;
5754;SDS011;2902;42.130;24.732;2022-07-15T09:56:42;5.10;;;1.20;;
5754;SDS011;2902;42.130;24.732;2022-07-15T09:59:10;3.83;;;1.52;;
5754;SDS011;2902;42.130;24.732;2022-07-15T10:01:37;2.25;;;1.45;;
5754;SDS011;2902;42.130;24.732;2022-07-15T10:04:06;2.70;;;1.15;;
5754;SDS011;2902;42.130;24.732;2022-07-15T10:06:34;2.40;;;1.52;;
5754;SDS011;2902;42.130;24.732;2022-07-15T10:09:06;3.00;;;1.35;;
5754;SDS011;2902;42.130;24.732;2022-07-15T10:11:35;3.63;;;1.23;;
5754;SDS011;2902;42.130;24.732;2022-07-15T10:17:06;2.95;;;1.20;;
5754;SDS011;2902;42.130;24.732;2022-07-15T10:20:08;2.80;;;1.17;;
5754;SDS011;2902;42.130;24.732;2022-07-15T10:23:01;3.55;;;1.20;;
5754;SDS011;2902;42.130;24.732;2022-07-15T10:25:48;1.88;;;1.30;;
5754;SDS011;2902;42.130;24.732;2022-07-15T10:28:22;2.03;;;1.10;;
5754;SDS011;2902;42.130;24.732;2022-07-15T10:31:13;1.73;;;1.33;;
5754;SDS011;2902;42.130;24.732;2022-07-15T10:36:53;1.40;;;1.10;;
5754;SDS011;2902;42.130;24.732;2022-07-15T10:42:17;7.53;;;2.05;;
5754;SDS011;2902;42.130;24.732;2022-07-15T10:44:48;4.57;;;1.13;;
5754;SDS011;2902;42.130;24.732;2022-07-15T10:47:28;1.40;;;1.30;;
5754;SDS011;2902;42.130;24.732;2022-07-15T10:49:55;2.25;;;1.40;;
5754;SDS011;2902;42.130;24.732;2022-07-15T10:52:23;4.93;;;1.20;;
5754;SDS011;2902;42.130;24.732;2022-07-15T10:54:51;1.83;;;1.33;;
5754;SDS011;2902;42.130;24.732;2022-07-15T11:00:27;3.53;;;1.42;;
5754;SDS011;2902;42.130;24.732;2022-07-15T11:03:03;1.40;;;1.30;;
5754;SDS011;2902;42.130;24.732;2022-07-15T11:05:32;4.07;;;1.10;;
5754;SDS011;2902;42.130;24.732;2022-07-15T11:07:59;1.90;;;1.23;;
5754;SDS011;2902;42.130;24.732;2022-07-15T11:10:26;2.85;;;1.10;;
5754;SDS011;2902;42.130;24.732;2022-07-15T11:12:58;2.13;;;1.88;;
5754;SDS011;2902;42.130;24.732;2022-07-15T11:15:27;1.27;;;1.17;;
5754;SDS011;2902;42.130;24.732;2022-07-15T11:17:55;3.33;;;0.90;;
5754;SDS011;2902;42.130;24.732;2022-07-15T11:20:24;1.70;;;0.93;;
5754;SDS011;2902;42.130;24.732;2022-07-15T11:22:53;1.60;;;0.98;;
5754;SDS011;2902;42.130;24.732;2022-07-15T11:25:22;2.35;;;1.25;;
5754;SDS011;2902;42.130;24.732;2022-07-15T11:27:54;2.00;;;0.90;;
5754;SDS011;2902;42.130;24.732;2022-07-15T11:30:27;2.08;;;0.90;;
5754;SDS011;2902;42.130;24.732;2022-07-15T11:32:55;5.28;;;2.17;;
5754;SDS011;2902;42.130;24.732;2022-07-15T11:35:23;2.35;;;1.30;;
5754;SDS011;2902;42.130;24.732;2022-07-15T11:37:57;4.13;;;1.50;;
5754;SDS011;2902;42.130;24.732;2022-07-15T11:40:25;4.53;;;1.45;;
5754;SDS011;2902;42.130;24.732;2022-07-15T11:43:13;4.80;;;1.90;;
5754;SDS011;2902;42.130;24.732;2022-07-15T11:45:58;5.07;;;1.23;;
5754;SDS011;2902;42.130;24.732;2022-07-15T11:48:25;3.35;;;1.40;;
5754;SDS011;2902;42.130;24.732;2022-07-15T11:50:53;2.05;;;1.00;;
5754;SDS011;2902;42.130;24.732;2022-07-15T11:53:21;1.00;;;1.00;;
5754;SDS011;2902;42.130;24.732;2022-07-15T11:55:50;3.42;;;3.13;;
5754;SDS011;2902;42.130;24.732;2022-07-15T11:58:30;5.57;;;2.33;;
5754;SDS011;2902;42.130;24.732;2022-07-15T12:00:58;13.25;;;9.88;;
5754;SDS011;2902;42.130;24.732;2022-07-15T12:03:33;10.63;;;9.65;;
5754;SDS011;2902;42.130;24.732;2022-07-15T12:06:02;5.57;;;2.22;;
5754;SDS011;2902;42.130;24.732;2022-07-15T12:08:34;2.10;;;1.30;;
5754;SDS011;2902;42.130;24.732;2022-07-15T12:11:09;1.38;;;1.27;;
5754;SDS011;2902;42.130;24.732;2022-07-15T12:13:42;1.95;;;1.42;;
5754;SDS011;2902;42.130;24.732;2022-07-15T12:16:10;3.28;;;1.20;;
5754;SDS011;2902;42.130;24.732;2022-07-15T12:18:37;2.97;;;1.10;;
5754;SDS011;2902;42.130;24.732;2022-07-15T12:21:04;2.53;;;1.00;;
5754;SDS011;2902;42.130;24.732;2022-07-15T12:23:32;5.95;;;1.27;;
5754;SDS011;2902;42.130;24.732;2022-07-15T12:26:02;1.75;;;1.10;;
5754;SDS011;2902;42.130;24.732;2022-07-15T12:28:30;3.35;;;1.27;;
5754;SDS011;2902;42.130;24.732;2022-07-15T12:31:00;1.17;;;1.17;;
5754;SDS011;2902;42.130;24.732;2022-07-15T12:33:27;1.20;;;1.00;;
5754;SDS011;2902;42.130;24.732;2022-07-15T12:36:11;2.08;;;0.90;;
5754;SDS011;2902;42.130;24.732;2022-07-15T12:38:40;2.40;;;1.23;;
5754;SDS011;2902;42.130;24.732;2022-07-15T12:41:09;2.83;;;1.45;;
5754;SDS011;2902;42.130;24.732;2022-07-15T12:43:46;2.25;;;1.13;;
5754;SDS011;2902;42.130;24.732;2022-07-15T12:46:15;1.92;;;1.50;;
5754;SDS011;2902;42.130;24.732;2022-07-15T12:48:45;3.70;;;1.02;;
5754;SDS011;2902;42.130;24.732;2022-07-15T12:51:13;2.35;;;1.20;;
5754;SDS011;2902;42.130;24.732;2022-07-15T12:53:41;3.22;;;1.27;;
5754;SDS011;2902;42.130;24.732;2022-07-15T12:56:07;1.75;;;1.02;;
5754;SDS011;2902;42.130;24.732;2022-07-15T12:58:34;4.43;;;1.33;;
5754;SDS011;2902;42.130;24.732;2022-07-15T13:01:03;3.38;;;1.70;;
5754;SDS011;2902;42.130;24.732;2022-07-15T13:03:33;5.80;;;1.58;;
5754;SDS011;2902;42.130;24.732;2022-07-15T13:06:01;4.20;;;1.55;;
5754;SDS011;2902;42.130;24.732;2022-07-15T13:08:29;1.80;;;1.50;;
5754;SDS011;2902;42.130;24.732;2022-07-15T13:10:57;6.72;;;1.42;;
5754;SDS011;2902;42.130;24.732;2022-07-15T13:13:25;1.30;;;1.20;;
5754;SDS011;2902;42.130;24.732;2022-07-15T13:15:53;2.58;;;1.20;;
5754;SDS011;2902;42.130;24.732;2022-07-15T13:18:21;3.38;;;1.20;;
5754;SDS011;2902;42.130;24.732;2022-07-15T13:20:51;2.75;;;1.27;;
5754;SDS011;2902;42.130;24.732;2022-07-15T13:23:19;1.40;;;1.02;;
5754;SDS011;2902;42.130;24.732;2022-07-15T13:25:46;1.77;;;1.15;;
5754;SDS011;2902;42.130;24.732;2022-07-15T13:28:16;1.80;;;1.13;;
5754;SDS011;2902;42.130;24.732;2022-07-15T13:30:43;4.32;;;1.30;;
5754;SDS011;2902;42.130;24.732;2022-07-15T13:33:10;4.75;;;1.35;;
5754;SDS011;2902;42.130;24.732;2022-07-15T13:35:37;1.40;;;1.23;;
5754;SDS011;2902;42.130;24.732;2022-07-15T13:38:06;2.17;;;1.15;;
5754;SDS011;2902;42.130;24.732;2022-07-15T13:40:32;1.25;;;1.20;;
5754;SDS011;2902;42.130;24.732;2022-07-15T13:42:59;25.45;;;2.97;;
5754;SDS011;2902;42.130;24.732;2022-07-15T13:45:26;2.40;;;1.40;;
5754;SDS011;2902;42.130;24.732;2022-07-15T13:47:53;5.15;;;1.50;;
5754;SDS011;2902;42.130;24.732;2022-07-15T13:50:20;5.63;;;1.45;;
5754;SDS011;2902;42.130;24.732;2022-07-15T13:53:05;2.00;;;1.20;;
5754;SDS011;2902;42.130;24.732;2022-07-15T13:55:32;1.35;;;1.30;;
5754;SDS011;2902;42.130;24.732;2022-07-15T13:57:59;1.65;;;1.00;;
5754;SDS011;2902;42.130;24.732;2022-07-15T14:00:26;3.33;;;1.30;;
5754;SDS011;2902;42.130;24.732;2022-07-15T14:02:53;4.90;;;2.20;;
5754;SDS011;2902;42.130;24.732;2022-07-15T14:05:21;6.55;;;1.38;;
5754;SDS011;2902;42.130;24.732;2022-07-15T14:07:48;3.78;;;1.50;;
5754;SDS011;2902;42.130;24.732;2022-07-15T14:10:16;4.78;;;1.30;;
5754;SDS011;2902;42.130;24.732;2022-07-15T14:12:43;2.90;;;1.20;;
5754;SDS011;2902;42.130;24.732;2022-07-15T14:15:10;3.00;;;1.08;;
5754;SDS011;2902;42.130;24.732;2022-07-15T14:17:37;1.48;;;1.38;;
5754;SDS011;2902;42.130;24.732;2022-07-15T14:20:04;2.85;;;1.50;;
5754;SDS011;2902;42.130;24.732;2022-07-15T14:22:33;2.05;;;1.20;;
5754;SDS011;2902;42.130;24.732;2022-07-15T14:25:00;7.32;;;1.67;;
5754;SDS011;2902;42.130;24.732;2022-07-15T14:27:28;3.90;;;1.58;;
5754;SDS011;2902;42.130;24.732;2022-07-15T14:29:55;1.85;;;1.35;;
5754;SDS011;2902;42.130;24.732;2022-07-15T14:32:22;8.05;;;1.55;;
5754;SDS011;2902;42.130;24.732;2022-07-15T14:34:48;13.25;;;2.13;;
5754;SDS011;2902;42.130;24.732;2022-07-15T14:37:15;3.00;;;1.70;;
5754;SDS011;2902;42.130;24.732;2022-07-15T14:39:42;1.17;;;1.08;;
5754;SDS011;2902;42.130;24.732;2022-07-15T14:42:09;4.18;;;1.52;;
5754;SDS011;2902;42.130;24.732;2022-07-15T14:44:38;5.45;;;1.40;;
5754;SDS011;2902;42.130;24.732;2022-07-15T14:47:04;2.80;;;1.30;;
5754;SDS011;2902;42.130;24.732;2022-07-15T14:49:31;4.15;;;1.67;;
5754;SDS011;2902;42.130;24.732;2022-07-15T14:51:58;10.68;;;2.95;;
5754;SDS011;2902;42.130;24.732;2022-07-15T14:54:25;3.25;;;1.15;;
5754;SDS011;2902;42.130;24.732;2022-07-15T14:56:51;2.83;;;1.20;;
5754;SDS011;2902;42.130;24.732;2022-07-15T14:59:18;1.80;;;1.23;;
5754;SDS011;2902;42.130;24.732;2022-07-15T15:01:46;1.55;;;1.45;;
5754;SDS011;2902;42.130;24.732;2022-07-15T15:04:13;2.78;;;1.88;;
5754;SDS011;2902;42.130;24.732;2022-07-15T15:06:40;1.80;;;1.70;;
5754;SDS011;2902;42.130;24.732;2022-07-15T15:09:06;1.60;;;1.50;;
5754;SDS011;2902;42.130;24.732;2022-07-15T15:11:33;1.52;;;1.33;;
5754;SDS011;2902;42.130;24.732;2022-07-15T15:14:00;3.83;;;1.30;;
5754;SDS011;2902;42.130;24.732;2022-07-15T15:16:29;1.20;;;1.20;;
5754;SDS011;2902;42.130;24.732;2022-07-15T15:18:57;2.15;;;1.33;;
5754;SDS011;2902;42.130;24.732;2022-07-15T15:21:23;2.75;;;1.30;;